Time;durP1;ratioP1;P1;durP2;ratioP2;P2;SDS_P1;SDS_P2;PMS_P1;PMS_P2;Temp;Humidity;BMP_temperature;BMP_pressure;BME280_temperature;BME280_humidity;BME280_pressure;Samples;Min_cycle;Max_cycle;Signal;HPM_P1;HPM_P2
2021/06/08 00:01:15;;;;;;;7.72;4.35;;;22.30;45.30;;;;;;5011317;28;20030;-59
2021/06/08 00:03:41;;;;;;;8.27;4.30;;;22.30;45.30;;;;;;5012210;28;20109;-56
2021/06/08 00:06:08;;;;;;;8.73;4.57;;;22.20;45.40;;;;;;4994672;28;20535;-58
2021/06/08 00:08:33;;;;;;;7.13;4.38;;;22.20;45.60;;;;;;4993894;28;20026;-58
2021/06/08 00:10:59;;;;;;;6.40;4.00;;;22.10;45.80;;;;;;4994298;28;20388;-52
2021/06/08 00:13:25;;;;;;;11.95;4.68;;;22.10;45.80;;;;;;5011304;28;20058;-59
2021/06/08 00:15:51;;;;;;;8.82;5.05;;;22.00;45.90;;;;;;5011582;28;20022;-55
2021/06/08 00:18:17;;;;;;;6.20;4.43;;;22.00;45.90;;;;;;5011147;28;20025;-58
2021/06/08 00:20:42;;;;;;;8.77;4.50;;;22.00;45.90;;;;;;5011470;28;20105;-57
2021/06/08 00:23:08;;;;;;;9.43;4.22;;;22.00;46.00;;;;;;4996424;28;20432;-58
2021/06/08 00:25:34;;;;;;;9.85;4.70;;;22.00;46.10;;;;;;5015820;28;20105;-59
2021/06/08 00:28:03;;;;;;;10.55;4.28;;;22.00;46.00;;;;;;5015422;28;20037;-59
2021/06/08 00:30:29;;;;;;;8.48;4.40;;;21.90;46.00;;;;;;5015371;28;20144;-58
2021/06/08 00:32:55;;;;;;;8.27;4.22;;;21.90;46.20;;;;;;5016159;28;20065;-60
2021/06/08 00:35:21;;;;;;;7.68;4.70;;;21.80;46.20;;;;;;5014448;28;20025;-58
2021/06/08 00:37:47;;;;;;;7.53;4.60;;;21.80;46.20;;;;;;5015147;28;20073;-52
2021/06/08 00:40:13;;;;;;;7.18;4.35;;;21.70;46.30;;;;;;4996695;28;20074;-46
2021/06/08 00:42:39;;;;;;;7.90;4.25;;;21.70;46.30;;;;;;5014735;28;20095;-58
2021/06/08 00:45:07;;;;;;;9.82;4.57;;;21.70;46.20;;;;;;5014262;28;20533;-58
2021/06/08 00:47:33;;;;;;;7.53;3.78;;;21.70;46.30;;;;;;5014082;28;20026;-59
2021/06/08 00:49:59;;;;;;;5.47;3.72;;;21.60;46.40;;;;;;4996848;28;20025;-59
2021/06/08 00:52:25;;;;;;;6.60;4.47;;;21.60;46.20;;;;;;4996949;28;20045;-60
2021/06/08 00:54:50;;;;;;;8.88;4.60;;;21.60;46.30;;;;;;4997126;28;20329;-60
2021/06/08 00:57:17;;;;;;;6.63;4.20;;;21.60;46.30;;;;;;5013731;28;20025;-58
2021/06/08 00:59:43;;;;;;;6.00;3.80;;;21.60;46.40;;;;;;5014649;28;20018;-56
2021/06/08 01:02:08;;;;;;;7.68;3.80;;;21.60;46.30;;;;;;4996727;28;20068;-57
2021/06/08 01:04:34;;;;;;;5.70;4.30;;;21.60;46.30;;;;;;5014546;28;20100;-57
2021/06/08 01:07:00;;;;;;;5.82;4.22;;;21.60;46.30;;;;;;5013762;28;20521;-55
2021/06/08 01:09:26;;;;;;;5.70;4.00;;;21.60;46.30;;;;;;4996453;28;20357;-58
2021/06/08 01:11:51;;;;;;;10.27;4.40;;;21.50;46.30;;;;;;5013833;28;20113;-58
2021/06/08 01:14:17;;;;;;;7.43;3.83;;;21.60;46.20;;;;;;5013669;28;20358;-59
2021/06/08 01:16:43;;;;;;;8.98;3.88;;;21.50;46.40;;;;;;5014297;28;20034;-57
2021/06/08 01:19:09;;;;;;;8.73;4.40;;;21.50;46.40;;;;;;4996291;28;20338;-59
2021/06/08 01:21:35;;;;;;;5.60;4.10;;;21.50;46.30;;;;;;4996735;28;20030;-58
2021/06/08 01:24:02;;;;;;;6.63;3.97;;;21.50;46.50;;;;;;5013490;28;20030;-57
2021/06/08 01:26:29;;;;;;;9.25;3.92;;;21.50;46.50;;;;;;5014203;28;20022;-58
2021/06/08 01:29:00;;;;;;;5.35;3.85;;;21.50;46.50;;;;;;5013927;28;20484;-58
2021/06/08 01:31:28;;;;;;;8.20;4.30;;;21.40;46.60;;;;;;5014270;28;20065;-58
2021/06/08 01:33:56;;;;;;;7.80;3.78;;;21.40;46.70;;;;;;5013692;28;20034;-59
2021/06/08 01:36:24;;;;;;;5.38;3.80;;;21.40;46.90;;;;;;4995942;28;20033;-59
2021/06/08 01:38:51;;;;;;;9.02;3.75;;;21.40;46.90;;;;;;4996178;28;20041;-60
2021/06/08 01:41:25;;;;;;;6.82;4.07;;;21.40;46.80;;;;;;5012485;28;20548;-65
2021/06/08 01:43:53;;;;;;;6.47;4.07;;;21.40;46.80;;;;;;4995637;28;20026;-69
2021/06/08 01:46:20;;;;;;;6.78;4.05;;;21.40;46.90;;;;;;5013156;28;20026;-68
2021/06/08 01:48:47;;;;;;;7.95;4.30;;;21.40;46.90;;;;;;5013264;28;20026;-72
2021/06/08 01:51:37;;;;;;;7.60;4.07;;;21.40;47.00;;;;;;5013210;28;20029;-70
2021/06/08 01:54:08;;;;;;;5.22;4.03;;;21.40;47.30;;;;;;5013005;28;20038;-66
2021/06/08 01:56:37;;;;;;;5.55;4.50;;;21.30;47.20;;;;;;4996176;28;20030;-70
2021/06/08 01:59:31;;;;;;;9.10;4.43;;;21.30;47.40;;;;;;5013479;28;20029;-70
2021/06/08 02:02:17;;;;;;;7.60;4.55;;;21.30;47.70;;;;;;4996013;28;20041;-64
2021/06/08 02:04:53;;;;;;;6.53;4.05;;;21.30;47.80;;;;;;5013525;28;20389;-68
2021/06/08 02:07:46;;;;;;;7.47;4.10;;;21.20;47.60;;;;;;5013283;28;20028;-69
2021/06/08 02:10:36;;;;;;;7.53;3.75;;;21.20;47.80;;;;;;5012994;28;20103;-60
2021/06/08 02:13:15;;;;;;;11.35;4.97;;;21.20;48.00;;;;;;5013058;28;20042;-67
2021/06/08 02:16:00;;;;;;;6.95;4.55;;;21.30;48.00;;;;;;5013096;28;20109;-64
2021/06/08 02:18:29;;;;;;;7.75;4.65;;;21.20;48.60;;;;;;4995719;28;20129;-69
2021/06/08 02:20:59;;;;;;;6.40;4.40;;;21.20;48.10;;;;;;5012998;28;20491;-71
2021/06/08 02:23:26;;;;;;;10.60;4.18;;;21.20;48.20;;;;;;5012643;28;20033;-71
2021/06/08 02:25:54;;;;;;;13.65;4.47;;;21.20;48.30;;;;;;5013064;28;20022;-69
2021/06/08 02:28:26;;;;;;;8.68;4.32;;;21.10;48.40;;;;;;5012209;28;20026;-67
2021/06/08 02:30:54;;;;;;;5.70;4.35;;;21.10;48.60;;;;;;4995685;28;20053;-65
2021/06/08 02:33:21;;;;;;;6.50;4.15;;;21.10;48.60;;;;;;5012283;28;20030;-64
2021/06/08 02:35:48;;;;;;;7.07;4.60;;;21.00;48.90;;;;;;5013201;28;20026;-69
2021/06/08 02:38:16;;;;;;;11.38;4.45;;;21.00;48.90;;;;;;5012173;28;20214;-64
2021/06/08 02:40:44;;;;;;;8.07;4.43;;;21.00;48.90;;;;;;5013001;28;20050;-69
2021/06/08 02:43:11;;;;;;;8.60;4.30;;;21.00;49.00;;;;;;5012125;28;20034;-70
2021/06/08 02:45:37;;;;;;;9.02;4.70;;;21.00;49.10;;;;;;5012527;28;20030;-65
2021/06/08 02:48:04;;;;;;;6.97;4.55;;;21.10;49.10;;;;;;5012559;28;20037;-60
2021/06/08 02:50:30;;;;;;;9.57;4.63;;;21.10;49.00;;;;;;5012700;28;20034;-69
2021/06/08 02:52:57;;;;;;;6.68;4.32;;;21.10;49.00;;;;;;5012412;28;20050;-68
2021/06/08 02:55:24;;;;;;;8.88;4.40;;;21.10;49.10;;;;;;5012071;28;20034;-63
2021/06/08 02:57:52;;;;;;;8.55;5.25;;;21.00;49.10;;;;;;5012740;28;20030;-69
2021/06/08 03:00:19;;;;;;;6.45;4.90;;;21.10;49.20;;;;;;4978128;28;20022;-69
2021/06/08 03:02:47;;;;;;;7.85;4.50;;;21.10;49.20;;;;;;4994856;28;20034;-70
2021/06/08 03:05:21;;;;;;;7.55;4.97;;;21.00;49.30;;;;;;5012621;28;20492;-66
2021/06/08 03:07:52;;;;;;;6.45;4.30;;;21.00;49.40;;;;;;4995382;28;20037;-70
2021/06/08 03:10:21;;;;;;;11.07;4.70;;;21.00;49.50;;;;;;5011840;28;20214;-71
2021/06/08 03:12:52;;;;;;;8.32;4.60;;;21.00;49.50;;;;;;5011966;28;20037;-60
2021/06/08 03:15:20;;;;;;;10.25;3.95;;;20.90;49.50;;;;;;5011604;28;20026;-69
2021/06/08 03:17:46;;;;;;;10.05;4.47;;;21.00;49.40;;;;;;5012256;28;20109;-70
2021/06/08 03:20:35;;;;;;;10.90;4.80;;;21.00;49.50;;;;;;4994122;28;20029;-69
2021/06/08 03:23:06;;;;;;;7.40;4.80;;;21.00;49.50;;;;;;5011904;28;20041;-71
2021/06/08 03:25:34;;;;;;;9.63;4.95;;;21.00;49.40;;;;;;4978782;28;20073;-64
2021/06/08 03:28:02;;;;;;;6.88;4.50;;;21.10;49.30;;;;;;5012134;28;20064;-61
2021/06/08 03:30:29;;;;;;;7.22;5.18;;;21.10;49.30;;;;;;5011866;28;20021;-69
2021/06/08 03:32:56;;;;;;;7.10;4.95;;;21.10;49.40;;;;;;5011960;28;20030;-69
2021/06/08 03:35:24;;;;;;;6.32;4.53;;;21.10;49.40;;;;;;5011666;28;20248;-67
2021/06/08 03:37:52;;;;;;;6.88;5.00;;;21.00;49.30;;;;;;5011714;28;20029;-69
2021/06/08 03:40:19;;;;;;;5.97;4.57;;;21.10;49.40;;;;;;5010960;28;20077;-71
2021/06/08 03:42:46;;;;;;;9.68;4.45;;;21.10;49.30;;;;;;5011412;28;20045;-60
2021/06/08 03:45:16;;;;;;;6.35;4.57;;;21.10;49.20;;;;;;5010930;28;20030;-68
2021/06/08 03:47:43;;;;;;;15.55;5.07;;;21.10;49.10;;;;;;5011225;28;20093;-69
2021/06/08 03:50:12;;;;;;;7.13;4.60;;;21.20;49.00;;;;;;5011073;28;20026;-69
2021/06/08 03:52:38;;;;;;;9.55;4.63;;;21.20;49.00;;;;;;5011305;28;20034;-66
2021/06/08 03:55:05;;;;;;;12.63;5.07;;;21.20;48.90;;;;;;5010565;28;20476;-64
2021/06/08 03:57:38;;;;;;;10.68;4.65;;;21.20;49.00;;;;;;5010447;28;20424;-70
2021/06/08 04:00:06;;;;;;;6.93;4.82;;;21.20;49.10;;;;;;5011084;28;20021;-63
2021/06/08 04:02:33;;;;;;;9.27;4.90;;;21.20;49.10;;;;;;5011122;28;20041;-69
2021/06/08 04:05:00;;;;;;;17.17;5.38;;;21.20;49.10;;;;;;5011363;28;20029;-70
2021/06/08 04:07:26;;;;;;;8.50;4.90;;;21.30;48.90;;;;;;5010839;28;20026;-69
2021/06/08 04:09:51;;;;;;;6.95;5.07;;;21.40;48.80;;;;;;5011891;28;20075;-63
2021/06/08 04:12:21;;;;;;;9.38;4.68;;;21.40;48.70;;;;;;5010812;28;20022;-69
2021/06/08 04:14:48;;;;;;;9.40;5.05;;;21.50;48.60;;;;;;5011350;28;20103;-70
2021/06/08 04:17:16;;;;;;;8.68;5.15;;;21.50;48.50;;;;;;5010562;28;20469;-56
2021/06/08 04:19:43;;;;;;;10.18;5.03;;;21.50;48.50;;;;;;4993314;28;20447;-69
2021/06/08 04:22:09;;;;;;;9.85;5.03;;;21.50;48.40;;;;;;5010767;28;20028;-69
2021/06/08 04:24:35;;;;;;;10.05;5.35;;;21.60;48.50;;;;;;5010824;28;20442;-68
2021/06/08 04:27:01;;;;;;;8.52;5.03;;;21.70;48.40;;;;;;5010962;28;20022;-69
2021/06/08 04:29:27;;;;;;;6.32;4.78;;;21.70;48.30;;;;;;5010382;28;20033;-69
2021/06/08 04:31:55;;;;;;;11.77;5.95;;;21.80;48.10;;;;;;5011118;28;20153;-70
2021/06/08 04:34:22;;;;;;;8.80;5.57;;;21.80;48.10;;;;;;4992859;28;20034;-71
2021/06/08 04:36:51;;;;;;;10.85;4.95;;;21.90;48.10;;;;;;4993641;28;20026;-69
2021/06/08 04:39:17;;;;;;;8.52;4.95;;;21.80;48.00;;;;;;5010385;28;20018;-69
2021/06/08 04:41:45;;;;;;;9.50;4.95;;;21.90;47.90;;;;;;5011334;28;20096;-69
2021/06/08 04:47:00;;;;;;;9.95;5.20;;;21.90;47.70;;;;;;5011119;28;20053;-70
2021/06/08 04:49:26;;;;;;;11.70;5.30;;;22.00;47.50;;;;;;5010526;28;20026;-70
2021/06/08 04:51:52;;;;;;;12.63;5.13;;;22.10;48.00;;;;;;5010881;28;20049;-70
2021/06/08 04:54:25;;;;;;;10.25;5.68;;;22.20;47.30;;;;;;4992950;28;20030;-66
2021/06/08 04:56:51;;;;;;;12.93;5.38;;;22.20;47.00;;;;;;4993465;28;20029;-68
2021/06/08 04:59:22;;;;;;;8.40;5.13;;;22.30;46.90;;;;;;5010334;28;20026;-70
2021/06/08 05:01:49;;;;;;;21.23;5.95;;;22.40;46.70;;;;;;4993352;28;20037;-70
2021/06/08 05:04:18;;;;;;;10.82;4.90;;;22.50;46.60;;;;;;4992782;28;20408;-69
2021/06/08 05:06:53;;;;;;;12.35;5.72;;;22.60;46.30;;;;;;4993218;28;20033;-68
2021/06/08 05:09:23;;;;;;;21.38;6.10;;;22.80;46.20;;;;;;4995369;28;20026;-70
2021/06/08 05:12:00;;;;;;;15.48;5.15;;;22.90;46.00;;;;;;5014476;28;20022;-71
2021/06/08 05:14:28;;;;;;;11.80;4.82;;;23.00;45.60;;;;;;5013773;28;20038;-70
2021/06/08 05:16:55;;;;;;;8.57;4.93;;;23.10;45.40;;;;;;5014597;28;20061;-71
2021/06/08 05:19:22;;;;;;;12.73;4.78;;;23.10;45.30;;;;;;5013877;28;20026;-70
2021/06/08 05:21:48;;;;;;;8.63;5.10;;;23.30;45.20;;;;;;5013800;28;20033;-67
2021/06/08 05:24:16;;;;;;;13.63;5.13;;;23.40;45.00;;;;;;5013394;28;20121;-62
2021/06/08 05:26:43;;;;;;;25.85;6.63;;;23.40;44.90;;;;;;4996608;28;20034;-58
2021/06/08 05:29:10;;;;;;;20.15;5.65;;;23.60;44.70;;;;;;4995288;28;20096;-69
2021/06/08 05:31:36;;;;;;;9.85;4.70;;;23.60;44.40;;;;;;4995578;28;20030;-64
2021/06/08 05:34:03;;;;;;;19.25;5.50;;;23.60;44.30;;;;;;5013675;28;20034;-65
2021/06/08 05:36:34;;;;;;;11.52;4.75;;;23.70;44.10;;;;;;4995633;28;20026;-68
2021/06/08 05:38:59;;;;;;;16.38;5.05;;;23.80;43.90;;;;;;5014031;28;20029;-65
2021/06/08 05:41:27;;;;;;;18.75;5.53;;;23.80;44.00;;;;;;5012699;28;20169;-68
2021/06/08 05:43:53;;;;;;;12.85;4.78;;;24.00;43.80;;;;;;4996043;28;20040;-68
2021/06/08 05:46:21;;;;;;;12.38;4.93;;;24.00;43.60;;;;;;4995439;28;20026;-66
2021/06/08 05:49:06;;;;;;;10.02;4.78;;;24.10;43.20;;;;;;4995493;28;20037;-62
2021/06/08 05:51:34;;;;;;;13.60;6.15;;;24.20;43.10;;;;;;5013116;28;20037;-68
2021/06/08 05:54:01;;;;;;;9.98;5.13;;;24.30;42.90;;;;;;5013404;28;20392;-68
2021/06/08 05:56:32;;;;;;;10.70;4.75;;;24.40;42.70;;;;;;5012459;28;20026;-68
2021/06/08 05:58:58;;;;;;;11.93;4.32;;;24.50;42.50;;;;;;5013750;28;20034;-70
2021/06/08 06:01:26;;;;;;;13.40;5.05;;;24.60;42.30;;;;;;4995269;28;20183;-68
2021/06/08 06:03:52;;;;;;;16.42;5.10;;;24.80;42.20;;;;;;4995352;28;20040;-68
2021/06/08 06:06:18;;;;;;;23.63;6.25;;;24.80;41.80;;;;;;5012470;28;20100;-70
2021/06/08 06:08:45;;;;;;;18.33;4.97;;;24.90;41.70;;;;;;4995719;28;20022;-63
2021/06/08 06:11:14;;;;;;;13.43;5.22;;;25.00;41.40;;;;;;4994292;28;20404;-68
2021/06/08 06:14:02;;;;;;;13.63;5.07;;;25.00;41.10;;;;;;5012895;28;20057;-70
2021/06/08 06:16:31;;;;;;;19.92;5.88;;;25.20;41.30;;;;;;5012393;28;20049;-61
2021/06/08 06:19:01;;;;;;;23.63;5.60;;;25.30;41.00;;;;;;4979879;28;20124;-65
2021/06/08 06:21:28;;;;;;;12.57;4.50;;;25.40;40.50;;;;;;4993673;28;20425;-65
2021/06/08 06:23:54;;;;;;;13.27;4.40;;;25.50;40.30;;;;;;5012519;28;20492;-62
2021/06/08 06:26:21;;;;;;;18.27;7.00;;;25.30;40.30;;;;;;5011624;28;20480;-68
2021/06/08 06:28:47;;;;;;;16.90;6.28;;;25.50;40.60;;;;;;4995605;28;20028;-67
2021/06/08 06:31:13;;;;;;;12.30;4.63;;;25.60;40.40;;;;;;5012432;28;20105;-68
2021/06/08 06:33:43;;;;;;;7.90;4.05;;;25.60;39.90;;;;;;5012336;28;20037;-67
2021/06/08 06:36:11;;;;;;;12.32;6.50;;;25.70;40.00;;;;;;4994939;28;20049;-69
2021/06/08 06:38:42;;;;;;;9.38;4.30;;;25.80;39.90;;;;;;5012329;28;20022;-67
2021/06/08 06:41:12;;;;;;;10.23;4.93;;;25.90;40.20;;;;;;5011871;28;20046;-53
2021/06/08 06:43:55;;;;;;;7.82;4.50;;;26.00;39.90;;;;;;5012097;28;20037;-67
2021/06/08 06:46:24;;;;;;;7.53;4.97;;;26.20;39.40;;;;;;5011874;28;20029;-67
2021/06/08 06:48:53;;;;;;;9.13;5.10;;;26.40;39.40;;;;;;5012309;28;20104;-67
2021/06/08 06:51:20;;;;;;;10.43;4.97;;;27.70;39.10;;;;;;5011654;28;20096;-65
2021/06/08 06:53:48;;;;;;;10.20;4.60;;;31.60;34.10;;;;;;4978526;28;20032;-67
2021/06/08 06:56:32;;;;;;;10.05;4.43;;;35.30;30.50;;;;;;5011879;28;20477;-67
2021/06/08 06:58:59;;;;;;;16.33;4.90;;;38.10;27.80;;;;;;4993568;28;20033;-67
2021/06/08 07:01:27;;;;;;;12.07;5.20;;;40.60;26.10;;;;;;4995438;28;20384;-64
2021/06/08 07:03:56;;;;;;;7.88;4.57;;;42.40;24.90;;;;;;5013441;28;20061;-67
2021/06/08 07:06:24;;;;;;;10.93;4.65;;;43.90;23.70;;;;;;5008333;28;20021;-67
2021/06/08 07:08:55;;;;;;;13.27;4.93;;;44.90;22.80;;;;;;5010705;28;20030;-66
2021/06/08 07:11:23;;;;;;;15.63;5.43;;;45.90;22.50;;;;;;5009878;28;20018;-56
2021/06/08 07:13:50;;;;;;;11.93;4.75;;;46.80;22.00;;;;;;4977430;28;20481;-63
2021/06/08 07:16:17;;;;;;;11.27;4.45;;;47.70;21.40;;;;;;5009554;28;20286;-59
2021/06/08 07:18:46;;;;;;;9.73;4.57;;;48.30;21.00;;;;;;5010707;28;20065;-59
2021/06/08 07:21:16;;;;;;;8.25;4.90;;;49.00;20.70;;;;;;5010738;28;20512;-54
2021/06/08 07:23:49;;;;;;;9.45;4.07;;;49.50;20.30;;;;;;5010995;28;20531;-64
2021/06/08 07:26:18;;;;;;;8.90;4.15;;;49.60;20.00;;;;;;4992459;28;20041;-64
2021/06/08 07:28:45;;;;;;;10.40;4.70;;;50.40;20.00;;;;;;4992074;28;20026;-63
2021/06/08 07:31:29;;;;;;;10.18;4.55;;;51.10;19.70;;;;;;4992440;28;20037;-54
2021/06/08 07:34:03;;;;;;;11.73;4.50;;;51.60;19.60;;;;;;4993379;28;20121;-63
2021/06/08 07:36:46;;;;;;;10.10;4.20;;;52.20;19.30;;;;;;5010369;28;20323;-66
2021/06/08 07:39:29;;;;;;;14.32;4.70;;;52.30;19.10;;;;;;5008744;28;20022;-59
2021/06/08 07:42:24;;;;;;;6.72;4.05;;;52.00;19.00;;;;;;4972174;28;20047;-63
2021/06/08 07:45:04;;;;;;;11.85;4.93;;;51.10;19.00;;;;;;4970834;28;20081;-62
2021/06/08 07:47:35;;;;;;;12.38;4.70;;;51.20;19.10;;;;;;4986412;28;20022;-65
2021/06/08 07:50:06;;;;;;;11.25;4.40;;;52.10;19.20;;;;;;4972142;28;20029;-56
2021/06/08 07:52:33;;;;;;;9.32;4.13;;;52.60;19.00;;;;;;4969659;28;20058;-62
2021/06/08 07:55:00;;;;;;;7.70;4.47;;;52.70;18.90;;;;;;4967843;28;20120;-61
2021/06/08 07:57:26;;;;;;;14.57;4.55;;;51.90;18.80;;;;;;4984209;28;20027;-63
2021/06/08 07:59:53;;;;;;;12.07;5.07;;;51.80;19.10;;;;;;4971251;28;20027;-63
2021/06/08 08:02:20;;;;;;;25.25;6.90;;;52.20;19.10;;;;;;4970438;28;20027;-62
2021/06/08 08:04:52;;;;;;;7.40;4.80;;;52.70;19.10;;;;;;4970566;28;20030;-62
2021/06/08 08:07:26;;;;;;;10.25;4.68;;;53.00;18.90;;;;;;4969852;28;20023;-58
2021/06/08 08:09:53;;;;;;;20.65;6.28;;;53.20;18.80;;;;;;4985653;28;20031;-57
2021/06/08 08:12:22;;;;;;;12.77;4.95;;;53.80;18.70;;;;;;4968535;28;20552;-59
2021/06/08 08:14:50;;;;;;;9.15;4.57;;;54.20;18.60;;;;;;4986155;28;20049;-64
2021/06/08 08:17:17;;;;;;;6.68;5.40;;;54.20;18.50;;;;;;4971013;28;20027;-62
2021/06/08 08:19:43;;;;;;;7.40;4.80;;;54.30;18.30;;;;;;4986648;28;20180;-64
2021/06/08 08:22:10;;;;;;;9.38;4.90;;;53.90;18.30;;;;;;4986289;28;20031;-57
2021/06/08 08:24:37;;;;;;;12.02;5.60;;;54.20;18.40;;;;;;4970198;28;20528;-62
2021/06/08 08:27:07;;;;;;;12.70;5.40;;;54.60;18.20;;;;;;4969860;28;20085;-63
2021/06/08 08:29:35;;;;;;;9.45;5.07;;;53.60;18.40;;;;;;4985916;28;20454;-58
2021/06/08 08:32:01;;;;;;;13.18;5.57;;;53.50;18.40;;;;;;4969223;28;20023;-62
2021/06/08 08:34:27;;;;;;;11.75;5.65;;;53.80;18.50;;;;;;4970300;28;20030;-62
2021/06/08 08:36:53;;;;;;;11.35;5.18;;;53.70;18.50;;;;;;4971057;28;20019;-62
2021/06/08 08:39:19;;;;;;;8.20;5.35;;;53.90;19.00;;;;;;4969879;28;20030;-63
2021/06/08 08:41:45;;;;;;;8.20;5.65;;;54.40;18.30;;;;;;4985979;28;20470;-63
2021/06/08 08:44:12;;;;;;;14.57;6.38;;;55.10;18.20;;;;;;4988989;28;20366;-62
2021/06/08 08:46:38;;;;;;;14.80;6.30;;;55.50;18.00;;;;;;4971536;28;20026;-62
2021/06/08 08:49:06;;;;;;;8.50;5.63;;;55.30;17.90;;;;;;4974072;28;20034;-59
2021/06/08 08:51:32;;;;;;;8.88;5.65;;;55.20;18.00;;;;;;4973297;28;20022;-63
2021/06/08 08:54:00;;;;;;;9.75;5.68;;;55.20;18.10;;;;;;4968516;28;20093;-57
2021/06/08 08:56:31;;;;;;;13.50;5.45;;;55.60;18.20;;;;;;4971614;28;20126;-61
2021/06/08 08:59:02;;;;;;;10.70;5.53;;;55.50;18.10;;;;;;4985737;28;20034;-58
2021/06/08 09:01:29;;;;;;;7.70;5.22;;;54.50;18.10;;;;;;4981937;28;20037;-63
2021/06/08 09:03:55;;;;;;;8.35;4.90;;;53.70;18.20;;;;;;4975415;28;20054;-66
2021/06/08 09:06:28;;;;;;;17.02;5.75;;;52.40;18.40;;;;;;4973579;28;20022;-62
2021/06/08 09:08:55;;;;;;;14.48;6.10;;;51.30;18.90;;;;;;4974565;28;20106;-59
2021/06/08 09:11:21;;;;;;;12.30;5.03;;;51.10;19.00;;;;;;4988106;28;20113;-62
2021/06/08 09:13:48;;;;;;;11.75;5.10;;;51.50;19.10;;;;;;4962005;28;20035;-60
2021/06/08 09:16:19;;;;;;;10.45;4.28;;;51.30;18.90;;;;;;4975040;28;20082;-62
2021/06/08 09:18:45;;;;;;;7.63;4.10;;;49.90;19.00;;;;;;4970667;28;20105;-63
2021/06/08 09:21:15;;;;;;;11.57;4.05;;;47.80;19.40;;;;;;4988583;28;20058;-53
2021/06/08 09:23:41;;;;;;;11.18;4.13;;;44.70;20.30;;;;;;4989276;28;20540;-61
2021/06/08 09:26:08;;;;;;;6.05;3.50;;;42.20;21.40;;;;;;4988522;28;20018;-63
2021/06/08 09:28:36;;;;;;;9.07;3.63;;;40.60;22.10;;;;;;4973919;28;20027;-62
2021/06/08 09:31:09;;;;;;;11.95;3.90;;;39.40;22.60;;;;;;4973672;28;20031;-64
2021/06/08 09:33:37;;;;;;;10.05;3.53;;;38.60;23.10;;;;;;4989162;28;20090;-57
2021/06/08 09:36:06;;;;;;;13.65;3.90;;;37.80;23.70;;;;;;4973999;28;20035;-67
2021/06/08 09:38:42;;;;;;;10.57;4.40;;;37.30;24.20;;;;;;4973076;28;20103;-60
2021/06/08 09:41:15;;;;;;;6.65;3.67;;;36.70;24.30;;;;;;4985381;28;20153;-53
2021/06/08 09:44:07;;;;;;;8.07;4.15;;;35.80;25.00;;;;;;4989708;28;20030;-62
2021/06/08 09:46:47;;;;;;;11.55;4.10;;;35.00;25.80;;;;;;4989125;28;20030;-61
2021/06/08 09:49:16;;;;;;;10.98;4.18;;;34.60;26.20;;;;;;4972982;28;20403;-58
2021/06/08 09:52:07;;;;;;;15.98;4.50;;;34.20;26.60;;;;;;4974062;28;20034;-62
2021/06/08 09:54:39;;;;;;;8.18;3.72;;;33.90;27.00;;;;;;4967857;28;20034;-61
2021/06/08 09:57:23;;;;;;;17.40;7.57;;;33.40;27.20;;;;;;4987500;28;20027;-62
2021/06/08 10:00:04;;;;;;;14.43;5.38;;;33.30;27.70;;;;;;4973982;28;20027;-62
2021/06/08 10:02:38;;;;;;;11.95;4.43;;;33.20;27.70;;;;;;4988436;28;20031;-63
2021/06/08 10:05:29;;;;;;;15.88;6.18;;;33.20;27.70;;;;;;4973838;28;20046;-63
2021/06/08 10:07:58;;;;;;;6.65;3.92;;;33.30;27.60;;;;;;4988671;28;20114;-63
2021/06/08 10:10:26;;;;;;;27.00;18.95;;;33.30;26.70;;;;;;4973244;28;20085;-62
2021/06/08 10:13:01;;;;;;;8.82;5.28;;;33.10;27.00;;;;;;4973852;28;20027;-60
2021/06/08 10:15:29;;;;;;;12.48;8.40;;;33.00;27.20;;;;;;4973347;28;20031;-60
2021/06/08 10:17:57;;;;;;;11.43;8.38;;;32.90;27.00;;;;;;4973158;28;20102;-62
2021/06/08 10:20:25;;;;;;;9.80;6.45;;;32.80;27.40;;;;;;4968740;28;20027;-60
2021/06/08 10:22:51;;;;;;;8.70;5.55;;;32.60;27.50;;;;;;4988360;28;20088;-63
2021/06/08 10:25:19;;;;;;;9.13;5.10;;;32.60;27.90;;;;;;4972753;28;20031;-62
2021/06/08 10:27:45;;;;;;;8.15;4.60;;;32.60;27.50;;;;;;4972987;28;20042;-62
2021/06/08 10:30:13;;;;;;;8.95;4.25;;;32.90;26.90;;;;;;4970206;28;20031;-58
2021/06/08 10:32:39;;;;;;;7.55;4.45;;;32.90;27.10;;;;;;4973021;28;20027;-59
2021/06/08 10:35:08;;;;;;;7.75;4.50;;;32.80;27.20;;;;;;4986575;28;20497;-50
2021/06/08 10:37:36;;;;;;;27.90;20.42;;;32.70;27.20;;;;;;4970398;28;20031;-64
2021/06/08 10:40:04;;;;;;;15.32;12.52;;;32.60;28.10;;;;;;4973498;28;20180;-65
2021/06/08 10:42:30;;;;;;;8.32;5.40;;;32.50;27.90;;;;;;4991878;28;20053;-63
2021/06/08 10:45:07;;;;;;;8.05;4.20;;;32.50;27.60;;;;;;4990750;28;20081;-56
2021/06/08 10:50:21;;;;;;;7.57;4.20;;;33.30;27.20;;;;;;4992586;28;20069;-64
2021/06/08 10:52:47;;;;;;;6.07;3.88;;;33.40;27.40;;;;;;4991138;28;20018;-66
2021/06/08 10:55:35;;;;;;;9.93;4.50;;;33.50;27.00;;;;;;4991484;28;20523;-59
2021/06/08 10:58:02;;;;;;;9.77;3.88;;;33.30;27.00;;;;;;4990212;28;20033;-68
2021/06/08 11:00:32;;;;;;;8.88;4.07;;;33.40;27.30;;;;;;4990717;28;20033;-66
2021/06/08 11:03:02;;;;;;;33.72;5.32;;;33.60;27.50;;;;;;4992714;28;20033;-66
2021/06/08 11:05:51;;;;;;;19.48;5.55;;;33.30;27.30;;;;;;4992902;28;20022;-58
2021/06/08 11:08:18;;;;;;;33.53;18.83;;;33.00;27.40;;;;;;4991985;28;20038;-66
2021/06/08 11:10:51;;;;;;;39.70;6.80;;;32.90;26.90;;;;;;4989694;28;20077;-65
2021/06/08 11:13:17;;;;;;;22.02;5.72;;;32.90;27.30;;;;;;4990242;28;20041;-64
2021/06/08 11:15:48;;;;;;;12.85;7.40;;;33.00;27.30;;;;;;4992878;28;20037;-66
2021/06/08 11:18:17;;;;;;;24.60;6.22;;;33.00;26.60;;;;;;4990822;28;20084;-56
2021/06/08 11:20:43;;;;;;;43.50;19.05;;;33.00;27.20;;;;;;4991404;28;20018;-67
2021/06/08 11:23:09;;;;;;;30.00;6.63;;;33.30;27.40;;;;;;4993032;28;20505;-67
2021/06/08 11:25:39;;;;;;;11.32;5.80;;;33.60;27.40;;;;;;4991778;28;20180;-62
2021/06/08 11:28:10;;;;;;;8.00;4.30;;;33.70;27.30;;;;;;4990627;28;20030;-58
2021/06/08 11:30:55;;;;;;;17.33;5.00;;;34.00;27.20;;;;;;4989784;28;20454;-64
2021/06/08 11:33:29;;;;;;;15.45;4.10;;;34.20;26.80;;;;;;4991192;28;20143;-62
2021/06/08 11:35:55;;;;;;;16.17;4.38;;;33.80;26.30;;;;;;4991976;28;20045;-66
2021/06/08 11:38:24;;;;;;;7.38;4.72;;;33.30;27.10;;;;;;4992019;28;20023;-68
2021/06/08 11:40:54;;;;;;;9.20;4.28;;;33.10;27.80;;;;;;4990714;28;20073;-65
2021/06/08 11:43:19;;;;;;;10.88;4.60;;;33.20;27.80;;;;;;4990947;28;20072;-64
2021/06/08 11:45:47;;;;;;;13.68;7.63;;;33.30;27.60;;;;;;4993323;28;20438;-67
2021/06/08 11:48:36;;;;;;;24.98;5.75;;;33.50;27.30;;;;;;4991324;28;20026;-69
2021/06/08 11:51:23;;;;;;;22.02;6.80;;;33.50;27.30;;;;;;4991091;28;20037;-69
2021/06/08 11:54:08;;;;;;;8.73;3.88;;;33.40;27.10;;;;;;4990627;28;20044;-70
2021/06/08 11:56:49;;;;;;;10.30;4.82;;;33.40;27.10;;;;;;4991838;28;20366;-69
2021/06/08 11:59:36;;;;;;;16.50;7.00;;;33.40;27.60;;;;;;4975612;28;20104;-70
2021/06/08 12:02:06;;;;;;;28.05;20.65;;;33.30;27.70;;;;;;4991048;28;20026;-69
2021/06/08 12:05:07;;;;;;;10.10;6.40;;;32.80;27.90;;;;;;4991755;28;20080;-68
2021/06/08 12:07:45;;;;;;;11.90;4.20;;;32.70;28.00;;;;;;4991639;28;20061;-67
2021/06/08 12:10:14;;;;;;;7.13;3.92;;;32.80;27.80;;;;;;4990220;28;20030;-68
2021/06/08 12:12:50;;;;;;;7.53;3.92;;;33.00;27.00;;;;;;4991528;28;20249;-59
2021/06/08 12:15:28;;;;;;;9.45;4.97;;;33.00;26.70;;;;;;4990338;28;20090;-69
2021/06/08 12:18:16;;;;;;;7.50;4.95;;;33.00;26.70;;;;;;4990720;28;20034;-61
2021/06/08 12:20:45;;;;;;;12.80;4.82;;;32.80;27.00;;;;;;4990397;28;20094;-68
2021/06/08 12:23:32;;;;;;;44.30;8.40;;;32.60;27.00;;;;;;4992510;28;20119;-67
2021/06/08 12:26:23;;;;;;;13.70;5.25;;;32.70;27.20;;;;;;4991047;28;20621;-64
2021/06/08 12:29:08;;;;;;;8.85;5.57;;;32.90;27.30;;;;;;4991538;28;20053;-68
2021/06/08 12:31:36;;;;;;;15.57;4.57;;;32.90;27.20;;;;;;4989551;28;20041;-69
2021/06/08 12:34:09;;;;;;;15.45;8.15;;;32.80;27.60;;;;;;4991985;28;20086;-64
2021/06/08 12:36:40;;;;;;;17.55;8.95;;;32.70;27.90;;;;;;4991099;28;20018;-67
2021/06/08 12:39:11;;;;;;;13.98;4.60;;;32.60;28.00;;;;;;4991982;28;20026;-66
2021/06/08 12:41:37;;;;;;;9.50;4.03;;;32.60;28.20;;;;;;4973351;28;20046;-69
2021/06/08 12:44:03;;;;;;;5.35;3.83;;;32.40;28.10;;;;;;4991664;28;20464;-69
2021/06/08 12:46:37;;;;;;;15.73;5.20;;;32.50;28.10;;;;;;4990202;28;20033;-69
2021/06/08 12:49:14;;;;;;;12.98;4.82;;;32.60;27.70;;;;;;4990505;28;20052;-68
2021/06/08 12:51:41;;;;;;;26.35;5.40;;;32.70;27.40;;;;;;4990146;28;20038;-69
2021/06/08 12:54:09;;;;;;;10.65;5.15;;;32.90;27.10;;;;;;4989601;28;20034;-68
2021/06/08 12:56:37;;;;;;;14.20;5.30;;;32.90;26.90;;;;;;4989772;28;20030;-69
2021/06/08 12:59:04;;;;;;;14.90;5.00;;;32.90;27.10;;;;;;4991461;28;20026;-68
2021/06/08 13:01:30;;;;;;;4.57;3.65;;;32.70;27.10;;;;;;4989813;28;20031;-67